sensor_id;sensor_type;location;lat;lon;timestamp;temperature;humidity
4376;DHT22;2202;50.866;12.750;2023-05-28T00:00:55;8.40;88.20
4376;DHT22;2202;50.866;12.750;2023-05-28T00:03:23;8.40;88.00
4376;DHT22;2202;50.866;12.750;2023-05-28T00:05:51;8.30;88.00
4376;DHT22;2202;50.866;12.750;2023-05-28T00:08:18;8.30;88.00
4376;DHT22;2202;50.866;12.750;2023-05-28T00:10:46;8.30;88.00
4376;DHT22;2202;50.866;12.750;2023-05-28T00:13:13;8.20;87.80
4376;DHT22;2202;50.866;12.750;2023-05-28T00:15:41;8.20;88.20
4376;DHT22;2202;50.866;12.750;2023-05-28T00:18:08;8.20;88.40
4376;DHT22;2202;50.866;12.750;2023-05-28T00:20:37;8.10;88.60
4376;DHT22;2202;50.866;12.750;2023-05-28T00:23:04;8.10;88.80
4376;DHT22;2202;50.866;12.750;2023-05-28T00:25:31;8.10;89.00
4376;DHT22;2202;50.866;12.750;2023-05-28T00:27:58;8.00;89.40
4376;DHT22;2202;50.866;12.750;2023-05-28T00:30:25;8.00;89.40
4376;DHT22;2202;50.866;12.750;2023-05-28T00:32:53;8.00;89.20
4376;DHT22;2202;50.866;12.750;2023-05-28T00:35:20;7.90;89.60
4376;DHT22;2202;50.866;12.750;2023-05-28T00:37:47;7.90;89.80
4376;DHT22;2202;50.866;12.750;2023-05-28T00:40:13;7.90;90.00
4376;DHT22;2202;50.866;12.750;2023-05-28T00:42:41;7.80;90.20
4376;DHT22;2202;50.866;12.750;2023-05-28T00:45:09;7.80;90.20
4376;DHT22;2202;50.866;12.750;2023-05-28T00:47:37;7.80;90.30
4376;DHT22;2202;50.866;12.750;2023-05-28T00:50:07;7.80;90.30
4376;DHT22;2202;50.866;12.750;2023-05-28T00:52:35;7.80;90.30
4376;DHT22;2202;50.866;12.750;2023-05-28T00:55:03;7.70;90.40
4376;DHT22;2202;50.866;12.750;2023-05-28T00:57:30;7.70;90.60
4376;DHT22;2202;50.866;12.750;2023-05-28T00:59:57;7.70;90.70
4376;DHT22;2202;50.866;12.750;2023-05-28T01:02:31;7.70;90.80
4376;DHT22;2202;50.866;12.750;2023-05-28T01:04:58;7.70;90.90
4376;DHT22;2202;50.866;12.750;2023-05-28T01:07:26;7.60;90.90
4376;DHT22;2202;50.866;12.750;2023-05-28T01:09:53;7.60;90.90
4376;DHT22;2202;50.866;12.750;2023-05-28T01:12:20;7.60;90.90
4376;DHT22;2202;50.866;12.750;2023-05-28T01:14:49;7.60;90.90
4376;DHT22;2202;50.866;12.750;2023-05-28T01:17:16;7.60;91.00
4376;DHT22;2202;50.866;12.750;2023-05-28T01:19:43;7.50;91.20
4376;DHT22;2202;50.866;12.750;2023-05-28T01:22:16;7.50;91.20
4376;DHT22;2202;50.866;12.750;2023-05-28T01:24:48;7.50;91.10
4376;DHT22;2202;50.866;12.750;2023-05-28T01:27:17;7.50;91.20
4376;DHT22;2202;50.866;12.750;2023-05-28T01:29:44;7.40;91.20
4376;DHT22;2202;50.866;12.750;2023-05-28T01:32:11;7.40;91.20
4376;DHT22;2202;50.866;12.750;2023-05-28T01:34:38;7.40;91.30
4376;DHT22;2202;50.866;12.750;2023-05-28T01:37:08;7.30;91.50
4376;DHT22;2202;50.866;12.750;2023-05-28T01:39:40;7.30;91.60
4376;DHT22;2202;50.866;12.750;2023-05-28T01:42:10;7.30;91.70
4376;DHT22;2202;50.866;12.750;2023-05-28T01:44:39;7.30;91.60
4376;DHT22;2202;50.866;12.750;2023-05-28T01:47:07;7.30;91.60
4376;DHT22;2202;50.866;12.750;2023-05-28T01:49:36;7.30;91.60
4376;DHT22;2202;50.866;12.750;2023-05-28T01:52:04;7.30;91.70
4376;DHT22;2202;50.866;12.750;2023-05-28T01:54:31;7.20;91.70
4376;DHT22;2202;50.866;12.750;2023-05-28T01:56:58;7.20;91.80
4376;DHT22;2202;50.866;12.750;2023-05-28T01:59:28;7.20;92.00
4376;DHT22;2202;50.866;12.750;2023-05-28T02:01:54;7.20;92.10
4376;DHT22;2202;50.866;12.750;2023-05-28T02:04:21;7.20;92.10
4376;DHT22;2202;50.866;12.750;2023-05-28T02:06:48;7.20;92.10
4376;DHT22;2202;50.866;12.750;2023-05-28T02:09:15;7.20;92.20
4376;DHT22;2202;50.866;12.750;2023-05-28T02:11:42;7.20;92.30
4376;DHT22;2202;50.866;12.750;2023-05-28T02:14:09;7.20;92.40
4376;DHT22;2202;50.866;12.750;2023-05-28T02:16:42;7.20;92.40
4376;DHT22;2202;50.866;12.750;2023-05-28T02:19:09;7.10;92.60
4376;DHT22;2202;50.866;12.750;2023-05-28T02:21:36;7.10;92.60
4376;DHT22;2202;50.866;12.750;2023-05-28T02:24:03;7.20;92.50
4376;DHT22;2202;50.866;12.750;2023-05-28T02:26:31;7.10;92.60
4376;DHT22;2202;50.866;12.750;2023-05-28T02:28:58;7.10;92.70
4376;DHT22;2202;50.866;12.750;2023-05-28T02:31:25;7.10;92.70
4376;DHT22;2202;50.866;12.750;2023-05-28T02:33:53;7.10;92.60
4376;DHT22;2202;50.866;12.750;2023-05-28T02:36:20;7.10;92.60
4376;DHT22;2202;50.866;12.750;2023-05-28T02:38:48;7.10;92.60
4376;DHT22;2202;50.866;12.750;2023-05-28T02:41:15;7.10;92.70
4376;DHT22;2202;50.866;12.750;2023-05-28T02:43:42;7.10;92.80
4376;DHT22;2202;50.866;12.750;2023-05-28T02:46:10;7.10;92.80
4376;DHT22;2202;50.866;12.750;2023-05-28T02:48:37;7.00;92.90
4376;DHT22;2202;50.866;12.750;2023-05-28T02:51:05;7.00;92.90
4376;DHT22;2202;50.866;12.750;2023-05-28T02:53:32;7.00;92.80
4376;DHT22;2202;50.866;12.750;2023-05-28T02:55:59;7.00;92.70
4376;DHT22;2202;50.866;12.750;2023-05-28T02:58:25;7.00;92.70
4376;DHT22;2202;50.866;12.750;2023-05-28T03:00:54;7.00;92.70
4376;DHT22;2202;50.866;12.750;2023-05-28T03:03:20;7.00;92.70
4376;DHT22;2202;50.866;12.750;2023-05-28T03:05:48;7.00;92.70
4376;DHT22;2202;50.866;12.750;2023-05-28T03:08:17;7.00;92.70
4376;DHT22;2202;50.866;12.750;2023-05-28T03:10:44;7.00;93.20
4376;DHT22;2202;50.866;12.750;2023-05-28T03:13:11;7.00;93.50
4376;DHT22;2202;50.866;12.750;2023-05-28T03:15:38;7.00;93.80
4376;DHT22;2202;50.866;12.750;2023-05-28T03:18:05;7.00;94.10
4376;DHT22;2202;50.866;12.750;2023-05-28T03:20:32;7.00;94.60
4376;DHT22;2202;50.866;12.750;2023-05-28T03:22:59;7.00;94.80
4376;DHT22;2202;50.866;12.750;2023-05-28T03:25:27;7.00;94.80
4376;DHT22;2202;50.866;12.750;2023-05-28T03:27:54;7.00;95.00
4376;DHT22;2202;50.866;12.750;2023-05-28T03:30:21;7.00;94.90
4376;DHT22;2202;50.866;12.750;2023-05-28T03:32:48;7.00;94.70
4376;DHT22;2202;50.866;12.750;2023-05-28T03:35:15;7.10;94.60
4376;DHT22;2202;50.866;12.750;2023-05-28T03:37:42;7.10;94.50
4376;DHT22;2202;50.866;12.750;2023-05-28T03:40:10;7.10;94.20
4376;DHT22;2202;50.866;12.750;2023-05-28T03:42:38;7.20;94.10
4376;DHT22;2202;50.866;12.750;2023-05-28T03:45:06;7.10;94.30
4376;DHT22;2202;50.866;12.750;2023-05-28T03:47:33;7.10;94.30
4376;DHT22;2202;50.866;12.750;2023-05-28T03:50:01;7.20;94.10
4376;DHT22;2202;50.866;12.750;2023-05-28T03:52:29;7.20;93.90
4376;DHT22;2202;50.866;12.750;2023-05-28T03:54:56;7.20;93.80
4376;DHT22;2202;50.866;12.750;2023-05-28T03:57:23;7.20;93.60
4376;DHT22;2202;50.866;12.750;2023-05-28T03:59:51;7.20;93.40
4376;DHT22;2202;50.866;12.750;2023-05-28T04:02:21;7.20;93.20
4376;DHT22;2202;50.866;12.750;2023-05-28T04:04:48;7.30;93.40
4376;DHT22;2202;50.866;12.750;2023-05-28T04:07:15;7.30;93.50
4376;DHT22;2202;50.866;12.750;2023-05-28T04:09:41;7.30;93.50
4376;DHT22;2202;50.866;12.750;2023-05-28T04:12:09;7.30;93.40
4376;DHT22;2202;50.866;12.750;2023-05-28T04:14:36;7.40;93.30
4376;DHT22;2202;50.866;12.750;2023-05-28T04:17:04;7.40;93.30
4376;DHT22;2202;50.866;12.750;2023-05-28T04:19:31;7.40;93.30
4376;DHT22;2202;50.866;12.750;2023-05-28T04:21:58;7.50;93.40
4376;DHT22;2202;50.866;12.750;2023-05-28T04:24:25;7.50;93.80
4376;DHT22;2202;50.866;12.750;2023-05-28T04:26:51;7.60;93.70
4376;DHT22;2202;50.866;12.750;2023-05-28T04:29:18;7.60;93.70
4376;DHT22;2202;50.866;12.750;2023-05-28T04:31:48;7.70;93.80
4376;DHT22;2202;50.866;12.750;2023-05-28T04:34:17;7.70;93.90
4376;DHT22;2202;50.866;12.750;2023-05-28T04:36:45;7.80;94.00
4376;DHT22;2202;50.866;12.750;2023-05-28T04:39:14;7.90;94.10
4376;DHT22;2202;50.866;12.750;2023-05-28T04:41:40;8.00;94.10
4376;DHT22;2202;50.866;12.750;2023-05-28T04:44:09;8.00;94.20
4376;DHT22;2202;50.866;12.750;2023-05-28T04:46:36;8.10;94.30
4376;DHT22;2202;50.866;12.750;2023-05-28T04:49:03;8.10;94.30
4376;DHT22;2202;50.866;12.750;2023-05-28T04:51:32;8.20;94.30
4376;DHT22;2202;50.866;12.750;2023-05-28T04:53:59;8.30;94.30
4376;DHT22;2202;50.866;12.750;2023-05-28T04:56:25;8.40;94.40
4376;DHT22;2202;50.866;12.750;2023-05-28T04:58:52;8.50;94.50
4376;DHT22;2202;50.866;12.750;2023-05-28T05:01:19;8.60;94.70
4376;DHT22;2202;50.866;12.750;2023-05-28T05:03:47;8.70;94.80
4376;DHT22;2202;50.866;12.750;2023-05-28T05:06:14;8.80;94.80
4376;DHT22;2202;50.866;12.750;2023-05-28T05:08:42;9.00;94.60
4376;DHT22;2202;50.866;12.750;2023-05-28T05:11:09;9.10;94.50
4376;DHT22;2202;50.866;12.750;2023-05-28T05:13:36;9.20;94.40
4376;DHT22;2202;50.866;12.750;2023-05-28T05:16:03;9.30;93.90
4376;DHT22;2202;50.866;12.750;2023-05-28T05:18:30;9.50;93.30
4376;DHT22;2202;50.866;12.750;2023-05-28T05:20:57;9.60;92.70
4376;DHT22;2202;50.866;12.750;2023-05-28T05:23:24;9.80;92.40
4376;DHT22;2202;50.866;12.750;2023-05-28T05:25:52;9.90;91.90
4376;DHT22;2202;50.866;12.750;2023-05-28T05:28:19;10.00;91.40
4376;DHT22;2202;50.866;12.750;2023-05-28T05:30:46;10.20;90.90
4376;DHT22;2202;50.866;12.750;2023-05-28T05:33:12;10.30;90.40
4376;DHT22;2202;50.866;12.750;2023-05-28T05:35:39;10.40;89.00
4376;DHT22;2202;50.866;12.750;2023-05-28T05:38:06;10.60;86.60
4376;DHT22;2202;50.866;12.750;2023-05-28T05:40:33;10.70;84.60
4376;DHT22;2202;50.866;12.750;2023-05-28T05:43:01;11.00;83.80
4376;DHT22;2202;50.866;12.750;2023-05-28T05:45:28;11.10;82.40
4376;DHT22;2202;50.866;12.750;2023-05-28T05:47:55;11.30;79.00
4376;DHT22;2202;50.866;12.750;2023-05-28T05:50:22;11.50;77.60
4376;DHT22;2202;50.866;12.750;2023-05-28T05:52:48;11.60;78.80
4376;DHT22;2202;50.866;12.750;2023-05-28T05:55:15;11.90;80.20
4376;DHT22;2202;50.866;12.750;2023-05-28T05:57:42;12.00;80.40
4376;DHT22;2202;50.866;12.750;2023-05-28T06:00:12;12.10;80.00
4376;DHT22;2202;50.866;12.750;2023-05-28T06:02:39;12.20;80.60
4376;DHT22;2202;50.866;12.750;2023-05-28T06:05:07;12.40;79.80
4376;DHT22;2202;50.866;12.750;2023-05-28T06:07:34;12.50;79.20
4376;DHT22;2202;50.866;12.750;2023-05-28T06:10:00;12.60;80.60
4376;DHT22;2202;50.866;12.750;2023-05-28T06:12:27;12.80;79.60
4376;DHT22;2202;50.866;12.750;2023-05-28T06:14:54;12.90;80.00
4376;DHT22;2202;50.866;12.750;2023-05-28T06:17:23;13.00;79.20
4376;DHT22;2202;50.866;12.750;2023-05-28T06:19:50;13.20;78.20
4376;DHT22;2202;50.866;12.750;2023-05-28T06:22:18;13.40;75.60
4376;DHT22;2202;50.866;12.750;2023-05-28T06:24:44;13.40;75.20
4376;DHT22;2202;50.866;12.750;2023-05-28T06:27:12;13.50;75.00
4376;DHT22;2202;50.866;12.750;2023-05-28T06:29:39;13.70;75.00
4376;DHT22;2202;50.866;12.750;2023-05-28T06:32:06;14.00;72.20
4376;DHT22;2202;50.866;12.750;2023-05-28T06:34:35;14.30;71.80
4376;DHT22;2202;50.866;12.750;2023-05-28T06:37:02;14.70;69.00
4376;DHT22;2202;50.866;12.750;2023-05-28T06:39:29;15.20;65.60
4376;DHT22;2202;50.866;12.750;2023-05-28T06:41:55;15.30;65.40
4376;DHT22;2202;50.866;12.750;2023-05-28T06:44:22;15.40;61.20
4376;DHT22;2202;50.866;12.750;2023-05-28T06:46:49;15.50;60.20
4376;DHT22;2202;50.866;12.750;2023-05-28T06:49:16;15.60;64.00
4376;DHT22;2202;50.866;12.750;2023-05-28T06:51:45;15.90;58.70
4376;DHT22;2202;50.866;12.750;2023-05-28T06:54:11;15.90;66.80
4376;DHT22;2202;50.866;12.750;2023-05-28T06:56:38;16.00;60.40
4376;DHT22;2202;50.866;12.750;2023-05-28T06:59:05;16.10;60.60
4376;DHT22;2202;50.866;12.750;2023-05-28T07:01:32;16.40;58.00
4376;DHT22;2202;50.866;12.750;2023-05-28T07:03:59;16.60;57.30
4376;DHT22;2202;50.866;12.750;2023-05-28T07:06:26;16.60;54.60
4376;DHT22;2202;50.866;12.750;2023-05-28T07:08:54;16.90;56.60
4376;DHT22;2202;50.866;12.750;2023-05-28T07:11:21;17.00;53.70
4376;DHT22;2202;50.866;12.750;2023-05-28T07:13:48;17.20;54.40
4376;DHT22;2202;50.866;12.750;2023-05-28T07:16:14;17.40;55.10
4376;DHT22;2202;50.866;12.750;2023-05-28T07:18:41;17.50;58.20
4376;DHT22;2202;50.866;12.750;2023-05-28T07:21:08;17.70;54.10
4376;DHT22;2202;50.866;12.750;2023-05-28T07:23:35;17.50;56.20
4376;DHT22;2202;50.866;12.750;2023-05-28T07:26:03;17.80;55.90
4376;DHT22;2202;50.866;12.750;2023-05-28T07:28:30;18.10;53.00
4376;DHT22;2202;50.866;12.750;2023-05-28T07:30:57;18.20;53.40
4376;DHT22;2202;50.866;12.750;2023-05-28T07:33:24;18.50;52.80
4376;DHT22;2202;50.866;12.750;2023-05-28T07:35:51;18.90;51.40
4376;DHT22;2202;50.866;12.750;2023-05-28T07:38:18;19.30;50.30
4376;DHT22;2202;50.866;12.750;2023-05-28T07:40:45;19.50;49.30
4376;DHT22;2202;50.866;12.750;2023-05-28T07:43:13;19.50;53.00
4376;DHT22;2202;50.866;12.750;2023-05-28T07:45:40;19.80;49.10
4376;DHT22;2202;50.866;12.750;2023-05-28T07:48:07;20.00;44.80
4376;DHT22;2202;50.866;12.750;2023-05-28T07:50:34;19.80;45.20
4376;DHT22;2202;50.866;12.750;2023-05-28T07:53:01;19.30;46.30
4376;DHT22;2202;50.866;12.750;2023-05-28T07:55:28;19.20;47.20
4376;DHT22;2202;50.866;12.750;2023-05-28T07:57:55;19.50;48.80
4376;DHT22;2202;50.866;12.750;2023-05-28T08:00:25;19.80;51.40
4376;DHT22;2202;50.866;12.750;2023-05-28T08:02:52;20.10;44.70
4376;DHT22;2202;50.866;12.750;2023-05-28T08:05:19;20.10;41.70
4376;DHT22;2202;50.866;12.750;2023-05-28T08:07:46;20.10;41.30
4376;DHT22;2202;50.866;12.750;2023-05-28T08:10:13;20.20;42.40
4376;DHT22;2202;50.866;12.750;2023-05-28T08:12:40;20.10;42.40
4376;DHT22;2202;50.866;12.750;2023-05-28T08:15:07;19.80;47.70
4376;DHT22;2202;50.866;12.750;2023-05-28T08:17:36;20.00;42.90
4376;DHT22;2202;50.866;12.750;2023-05-28T08:20:04;20.10;41.80
4376;DHT22;2202;50.866;12.750;2023-05-28T08:22:32;20.30;39.70
4376;DHT22;2202;50.866;12.750;2023-05-28T08:24:59;20.30;42.50
4376;DHT22;2202;50.866;12.750;2023-05-28T08:27:26;20.60;43.40
4376;DHT22;2202;50.866;12.750;2023-05-28T08:29:53;21.00;39.20
4376;DHT22;2202;50.866;12.750;2023-05-28T08:32:20;21.10;40.90
4376;DHT22;2202;50.866;12.750;2023-05-28T08:34:49;21.20;38.30
4376;DHT22;2202;50.866;12.750;2023-05-28T08:37:16;20.90;36.90
4376;DHT22;2202;50.866;12.750;2023-05-28T08:39:43;20.70;40.20
4376;DHT22;2202;50.866;12.750;2023-05-28T08:42:10;20.70;41.70
4376;DHT22;2202;50.866;12.750;2023-05-28T08:44:37;20.30;41.80
4376;DHT22;2202;50.866;12.750;2023-05-28T08:47:04;19.90;40.20
4376;DHT22;2202;50.866;12.750;2023-05-28T08:49:41;19.70;42.20
4376;DHT22;2202;50.866;12.750;2023-05-28T08:52:12;20.00;47.00
4376;DHT22;2202;50.866;12.750;2023-05-28T08:54:41;20.40;42.20
4376;DHT22;2202;50.866;12.750;2023-05-28T08:57:09;20.70;41.30
4376;DHT22;2202;50.866;12.750;2023-05-28T08:59:37;21.10;41.50
4376;DHT22;2202;50.866;12.750;2023-05-28T09:02:04;21.50;38.80
4376;DHT22;2202;50.866;12.750;2023-05-28T09:04:31;21.80;35.40
4376;DHT22;2202;50.866;12.750;2023-05-28T09:06:58;21.80;37.60
4376;DHT22;2202;50.866;12.750;2023-05-28T09:09:27;21.80;34.20
4376;DHT22;2202;50.866;12.750;2023-05-28T09:11:57;21.60;38.60
4376;DHT22;2202;50.866;12.750;2023-05-28T09:14:28;21.70;37.40
4376;DHT22;2202;50.866;12.750;2023-05-28T09:16:55;22.00;37.60
4376;DHT22;2202;50.866;12.750;2023-05-28T09:19:24;22.30;34.60
4376;DHT22;2202;50.866;12.750;2023-05-28T09:21:55;22.50;38.50
4376;DHT22;2202;50.866;12.750;2023-05-28T09:24:23;22.60;32.40
4376;DHT22;2202;50.866;12.750;2023-05-28T09:26:54;22.70;35.60
4376;DHT22;2202;50.866;12.750;2023-05-28T09:29:21;22.70;34.00
4376;DHT22;2202;50.866;12.750;2023-05-28T09:31:54;22.50;31.90
4376;DHT22;2202;50.866;12.750;2023-05-28T09:34:25;22.50;31.00
4376;DHT22;2202;50.866;12.750;2023-05-28T09:36:53;22.30;33.00
4376;DHT22;2202;50.866;12.750;2023-05-28T09:39:24;22.30;36.10
4376;DHT22;2202;50.866;12.750;2023-05-28T09:41:59;22.50;33.30
4376;DHT22;2202;50.866;12.750;2023-05-28T09:44:30;22.60;37.40
4376;DHT22;2202;50.866;12.750;2023-05-28T09:46:57;22.80;33.00
4376;DHT22;2202;50.866;12.750;2023-05-28T09:49:27;23.10;33.30
4376;DHT22;2202;50.866;12.750;2023-05-28T09:51:57;23.20;29.10
4376;DHT22;2202;50.866;12.750;2023-05-28T09:54:27;22.70;30.10
4376;DHT22;2202;50.866;12.750;2023-05-28T09:57:00;22.50;33.70
4376;DHT22;2202;50.866;12.750;2023-05-28T09:59:31;22.50;31.50
4376;DHT22;2202;50.866;12.750;2023-05-28T10:02:00;22.50;35.10
4376;DHT22;2202;50.866;12.750;2023-05-28T10:04:34;22.80;32.40
4376;DHT22;2202;50.866;12.750;2023-05-28T10:07:04;22.80;37.20
4376;DHT22;2202;50.866;12.750;2023-05-28T10:09:32;23.20;34.70
4376;DHT22;2202;50.866;12.750;2023-05-28T10:12:07;23.40;29.70
4376;DHT22;2202;50.866;12.750;2023-05-28T10:14:36;23.30;29.80
4376;DHT22;2202;50.866;12.750;2023-05-28T10:17:03;23.10;31.50
4376;DHT22;2202;50.866;12.750;2023-05-28T10:19:30;23.10;28.60
4376;DHT22;2202;50.866;12.750;2023-05-28T10:21:57;22.70;30.50
4376;DHT22;2202;50.866;12.750;2023-05-28T10:24:24;22.40;31.40
4376;DHT22;2202;50.866;12.750;2023-05-28T10:26:53;22.30;34.60
4376;DHT22;2202;50.866;12.750;2023-05-28T10:29:21;22.50;31.90
4376;DHT22;2202;50.866;12.750;2023-05-28T10:31:57;22.40;33.00
4376;DHT22;2202;50.866;12.750;2023-05-28T10:34:29;22.60;29.80
4376;DHT22;2202;50.866;12.750;2023-05-28T10:36:56;22.80;32.80
4376;DHT22;2202;50.866;12.750;2023-05-28T10:39:23;22.70;33.80
4376;DHT22;2202;50.866;12.750;2023-05-28T10:41:50;23.10;31.20
4376;DHT22;2202;50.866;12.750;2023-05-28T10:44:17;23.40;29.80
4376;DHT22;2202;50.866;12.750;2023-05-28T10:46:45;23.60;29.60
4376;DHT22;2202;50.866;12.750;2023-05-28T10:49:21;23.70;28.30
4376;DHT22;2202;50.866;12.750;2023-05-28T10:51:56;23.70;29.40
4376;DHT22;2202;50.866;12.750;2023-05-28T10:54:38;23.10;31.40
4376;DHT22;2202;50.866;12.750;2023-05-28T10:57:11;23.40;29.20
4376;DHT22;2202;50.866;12.750;2023-05-28T10:59:39;23.20;28.10
4376;DHT22;2202;50.866;12.750;2023-05-28T11:02:10;23.40;30.30
4376;DHT22;2202;50.866;12.750;2023-05-28T11:04:38;23.10;32.10
4376;DHT22;2202;50.866;12.750;2023-05-28T11:07:06;23.10;30.50
4376;DHT22;2202;50.866;12.750;2023-05-28T11:09:33;23.40;28.50
4376;DHT22;2202;50.866;12.750;2023-05-28T11:12:01;23.50;29.50
4376;DHT22;2202;50.866;12.750;2023-05-28T11:14:35;23.20;33.00
4376;DHT22;2202;50.866;12.750;2023-05-28T11:17:11;23.30;33.00
4376;DHT22;2202;50.866;12.750;2023-05-28T11:19:40;23.50;29.70
4376;DHT22;2202;50.866;12.750;2023-05-28T11:22:07;23.20;28.50
4376;DHT22;2202;50.866;12.750;2023-05-28T11:24:53;23.00;30.10
4376;DHT22;2202;50.866;12.750;2023-05-28T11:27:21;22.90;29.80
4376;DHT22;2202;50.866;12.750;2023-05-28T11:29:48;22.80;34.40
4376;DHT22;2202;50.866;12.750;2023-05-28T11:32:19;22.80;32.10
4376;DHT22;2202;50.866;12.750;2023-05-28T11:34:48;22.90;34.70
4376;DHT22;2202;50.866;12.750;2023-05-28T11:37:15;22.90;32.20
4376;DHT22;2202;50.866;12.750;2023-05-28T11:39:48;23.00;33.10
4376;DHT22;2202;50.866;12.750;2023-05-28T11:42:15;23.40;31.90
4376;DHT22;2202;50.866;12.750;2023-05-28T11:44:46;23.80;29.90
4376;DHT22;2202;50.866;12.750;2023-05-28T11:47:13;24.00;29.50
4376;DHT22;2202;50.866;12.750;2023-05-28T11:49:42;23.40;30.30
4376;DHT22;2202;50.866;12.750;2023-05-28T11:52:12;23.00;32.10
4376;DHT22;2202;50.866;12.750;2023-05-28T11:54:40;22.90;30.10
4376;DHT22;2202;50.866;12.750;2023-05-28T11:57:07;22.90;29.20
4376;DHT22;2202;50.866;12.750;2023-05-28T11:59:34;23.10;29.10
4376;DHT22;2202;50.866;12.750;2023-05-28T12:02:11;23.40;28.30
4376;DHT22;2202;50.866;12.750;2023-05-28T12:04:40;23.50;28.50
4376;DHT22;2202;50.866;12.750;2023-05-28T12:07:18;23.40;29.50
4376;DHT22;2202;50.866;12.750;2023-05-28T12:09:45;23.40;28.80
4376;DHT22;2202;50.866;12.750;2023-05-28T12:12:12;23.00;31.40
4376;DHT22;2202;50.866;12.750;2023-05-28T12:14:39;23.10;29.20
4376;DHT22;2202;50.866;12.750;2023-05-28T12:17:07;22.70;28.70
4376;DHT22;2202;50.866;12.750;2023-05-28T12:19:36;22.70;30.30
4376;DHT22;2202;50.866;12.750;2023-05-28T12:22:12;22.80;28.70
4376;DHT22;2202;50.866;12.750;2023-05-28T12:24:48;22.80;28.80
4376;DHT22;2202;50.866;12.750;2023-05-28T12:27:15;23.00;29.70
4376;DHT22;2202;50.866;12.750;2023-05-28T12:29:43;23.20;30.80
4376;DHT22;2202;50.866;12.750;2023-05-28T12:32:11;23.30;29.20
4376;DHT22;2202;50.866;12.750;2023-05-28T12:34:37;23.10;28.40
4376;DHT22;2202;50.866;12.750;2023-05-28T12:37:06;23.10;28.50
4376;DHT22;2202;50.866;12.750;2023-05-28T12:39:33;23.10;30.80
4376;DHT22;2202;50.866;12.750;2023-05-28T12:42:01;23.00;29.10
4376;DHT22;2202;50.866;12.750;2023-05-28T12:44:28;22.50;28.30
4376;DHT22;2202;50.866;12.750;2023-05-28T12:46:55;22.30;31.50
4376;DHT22;2202;50.866;12.750;2023-05-28T12:49:22;22.30;31.20
4376;DHT22;2202;50.866;12.750;2023-05-28T12:51:49;22.50;29.50
4376;DHT22;2202;50.866;12.750;2023-05-28T12:54:17;22.80;29.20
4376;DHT22;2202;50.866;12.750;2023-05-28T12:56:44;22.90;27.80
4376;DHT22;2202;50.866;12.750;2023-05-28T12:59:20;22.90;27.80
4376;DHT22;2202;50.866;12.750;2023-05-28T13:01:47;23.00;28.00
4376;DHT22;2202;50.866;12.750;2023-05-28T13:04:14;23.10;28.90
4376;DHT22;2202;50.866;12.750;2023-05-28T13:06:41;23.20;30.80
4376;DHT22;2202;50.866;12.750;2023-05-28T13:09:08;23.30;28.50
4376;DHT22;2202;50.866;12.750;2023-05-28T13:11:39;23.20;27.50
4376;DHT22;2202;50.866;12.750;2023-05-28T13:14:06;22.90;27.30
4376;DHT22;2202;50.866;12.750;2023-05-28T13:16:33;23.00;29.90
4376;DHT22;2202;50.866;12.750;2023-05-28T13:19:00;23.40;28.20
4376;DHT22;2202;50.866;12.750;2023-05-28T13:21:28;23.40;26.90
4376;DHT22;2202;50.866;12.750;2023-05-28T13:23:57;23.10;29.20
4376;DHT22;2202;50.866;12.750;2023-05-28T13:26:24;23.40;27.50
4376;DHT22;2202;50.866;12.750;2023-05-28T13:28:53;23.20;27.10
4376;DHT22;2202;50.866;12.750;2023-05-28T13:31:20;23.40;27.10
4376;DHT22;2202;50.866;12.750;2023-05-28T13:33:47;23.60;28.30
4376;DHT22;2202;50.866;12.750;2023-05-28T13:36:14;24.00;26.90
4376;DHT22;2202;50.866;12.750;2023-05-28T13:38:41;24.30;26.40
4376;DHT22;2202;50.866;12.750;2023-05-28T13:41:08;24.20;25.60
4376;DHT22;2202;50.866;12.750;2023-05-28T13:43:36;24.30;25.30
4376;DHT22;2202;50.866;12.750;2023-05-28T13:46:04;24.20;24.80
4376;DHT22;2202;50.866;12.750;2023-05-28T13:48:31;24.00;25.60
4376;DHT22;2202;50.866;12.750;2023-05-28T13:50:58;24.00;26.30
4376;DHT22;2202;50.866;12.750;2023-05-28T13:53:26;24.10;25.00
4376;DHT22;2202;50.866;12.750;2023-05-28T13:55:53;24.10;26.30
4376;DHT22;2202;50.866;12.750;2023-05-28T13:58:20;23.90;25.50
4376;DHT22;2202;50.866;12.750;2023-05-28T14:00:47;23.80;26.50
4376;DHT22;2202;50.866;12.750;2023-05-28T14:03:15;23.80;25.20
4376;DHT22;2202;50.866;12.750;2023-05-28T14:05:43;23.80;26.20
4376;DHT22;2202;50.866;12.750;2023-05-28T14:08:11;23.80;25.70
4376;DHT22;2202;50.866;12.750;2023-05-28T14:10:38;23.70;26.20
4376;DHT22;2202;50.866;12.750;2023-05-28T14:13:05;23.40;28.30
4376;DHT22;2202;50.866;12.750;2023-05-28T14:15:32;23.50;27.30
4376;DHT22;2202;50.866;12.750;2023-05-28T14:17:59;23.70;27.60
4376;DHT22;2202;50.866;12.750;2023-05-28T14:20:28;24.00;27.80
4376;DHT22;2202;50.866;12.750;2023-05-28T14:22:59;24.30;25.40
4376;DHT22;2202;50.866;12.750;2023-05-28T14:25:26;24.40;25.30
4376;DHT22;2202;50.866;12.750;2023-05-28T14:27:53;24.20;24.00
4376;DHT22;2202;50.866;12.750;2023-05-28T14:30:20;24.00;25.10
4376;DHT22;2202;50.866;12.750;2023-05-28T14:32:47;23.90;26.00
4376;DHT22;2202;50.866;12.750;2023-05-28T14:35:14;23.80;26.50
4376;DHT22;2202;50.866;12.750;2023-05-28T14:37:42;23.70;26.90
4376;DHT22;2202;50.866;12.750;2023-05-28T14:40:11;23.80;27.20
4376;DHT22;2202;50.866;12.750;2023-05-28T14:42:38;24.10;25.90
4376;DHT22;2202;50.866;12.750;2023-05-28T14:45:05;23.80;27.50
4376;DHT22;2202;50.866;12.750;2023-05-28T14:47:32;23.90;28.20
4376;DHT22;2202;50.866;12.750;2023-05-28T14:49:59;24.00;26.20
4376;DHT22;2202;50.866;12.750;2023-05-28T14:52:27;24.00;26.40
4376;DHT22;2202;50.866;12.750;2023-05-28T14:54:57;24.00;26.50
4376;DHT22;2202;50.866;12.750;2023-05-28T14:57:25;24.10;25.20
4376;DHT22;2202;50.866;12.750;2023-05-28T14:59:53;24.00;27.80
4376;DHT22;2202;50.866;12.750;2023-05-28T15:02:21;24.10;26.20
4376;DHT22;2202;50.866;12.750;2023-05-28T15:04:48;24.20;25.90
4376;DHT22;2202;50.866;12.750;2023-05-28T15:07:15;24.40;25.80
4376;DHT22;2202;50.866;12.750;2023-05-28T15:09:41;24.30;24.90
4376;DHT22;2202;50.866;12.750;2023-05-28T15:12:11;23.90;26.20
4376;DHT22;2202;50.866;12.750;2023-05-28T15:14:38;23.70;25.20
4376;DHT22;2202;50.866;12.750;2023-05-28T15:17:05;23.50;26.40
4376;DHT22;2202;50.866;12.750;2023-05-28T15:19:31;23.30;26.10
4376;DHT22;2202;50.866;12.750;2023-05-28T15:21:58;23.40;27.50
4376;DHT22;2202;50.866;12.750;2023-05-28T15:24:25;23.60;26.40
4376;DHT22;2202;50.866;12.750;2023-05-28T15:26:52;23.80;27.20
4376;DHT22;2202;50.866;12.750;2023-05-28T15:29:21;23.80;27.10
4376;DHT22;2202;50.866;12.750;2023-05-28T15:31:48;24.00;25.50
4376;DHT22;2202;50.866;12.750;2023-05-28T15:34:16;24.10;25.80
4376;DHT22;2202;50.866;12.750;2023-05-28T15:36:43;24.00;23.80
4376;DHT22;2202;50.866;12.750;2023-05-28T15:39:10;23.70;23.80
4376;DHT22;2202;50.866;12.750;2023-05-28T15:41:38;23.30;24.00
4376;DHT22;2202;50.866;12.750;2023-05-28T15:44:07;23.20;24.30
4376;DHT22;2202;50.866;12.750;2023-05-28T15:46:36;23.00;25.70
4376;DHT22;2202;50.866;12.750;2023-05-28T15:49:03;23.10;25.70
4376;DHT22;2202;50.866;12.750;2023-05-28T15:51:30;22.90;24.80
4376;DHT22;2202;50.866;12.750;2023-05-28T15:53:57;22.50;25.90
4376;DHT22;2202;50.866;12.750;2023-05-28T15:56:24;22.50;26.50